Time,TemperatureF,DewpointF,PressureIn,WindDirection,WindDirectionDegrees,WindSpeedMPH,WindSpeedGustMPH,Humidity,HourlyPrecipIn,Conditions,Clouds,dailyrainin,SoftwareType,DateUTC
2013-02-28 00:02:00,52.9,47.1,0.00,WNW,301,5.1,9.4,81,0.00,,,0.00,WUHU216CR1000,2013-02-28 08:02:00,
2013-02-28 00:07:00,52.9,47.1,0.00,WNW,301,5.1,9.4,81,0.00,,,0.00,WUHU216CR1000,2013-02-28 08:07:00,
2013-02-28 00:17:00,52.8,47.0,0.00,WNW,302,4.6,9.6,81,0.00,,,0.00,WUHU216CR1000,2013-02-28 08:17:00,
2013-02-28 00:22:00,52.8,47.0,0.00,WNW,302,4.6,9.6,81,0.00,,,0.00,WUHU216CR1000,2013-02-28 08:22:00,
2013-02-28 00:27:00,52.8,47.0,0.00,WNW,302,4.6,9.6,81,0.00,,,0.00,WUHU216CR1000,2013-02-28 08:27:00,
2013-02-28 00:32:00,52.6,47.1,0.00,WNW,294,5.9,12.3,82,0.00,,,0.00,WUHU216CR1000,2013-02-28 08:32:00,
2013-02-28 00:33:00,52.6,47.1,0.00,WNW,294,5.9,12.3,82,0.00,,,0.00,WUHU216CR1000,2013-02-28 08:33:00,
2013-02-28 00:37:00,52.6,47.1,0.00,WNW,294,5.9,12.3,82,0.00,,,0.00,WUHU216CR1000,2013-02-28 08:37:00,
2013-02-28 00:42:00,52.6,47.1,0.00,WNW,294,5.9,12.3,82,0.00,,,0.00,WUHU216CR1000,2013-02-28 08:42:00,
2013-02-28 00:47:00,51.9,47.2,0.00,WNW,297,5.2,9.8,84,0.00,,,0.00,WUHU216CR1000,2013-02-28 08:47:00,
2013-02-28 00:52:00,51.9,47.2,0.00,WNW,297,5.2,9.8,84,0.00,,,0.00,WUHU216CR1000,2013-02-28 08:52:00,
2013-02-28 00:57:00,51.9,47.2,0.00,WNW,297,5.2,9.8,84,0.00,,,0.00,WUHU216CR1000,2013-02-28 08:57:00,
2013-02-28 01:02:00,51.8,47.1,0.00,WNW,295,5.4,9.6,84,0.00,,,0.00,WUHU216CR1000,2013-02-28 09:02:00,
2013-02-28 01:07:00,51.8,47.1,0.00,WNW,295,5.4,9.6,84,0.00,,,0.00,WUHU216CR1000,2013-02-28 09:07:00,
2013-02-28 01:12:00,51.8,47.1,0.00,WNW,295,5.4,9.6,84,0.00,,,0.00,WUHU216CR1000,2013-02-28 09:12:00,
2013-02-28 01:17:00,51.7,46.9,0.00,NW,304,4.3,7.9,84,0.00,,,0.00,WUHU216CR1000,2013-02-28 09:17:00,
2013-02-28 01:22:00,51.7,46.9,0.00,NW,304,4.3,7.9,84,0.00,,,0.00,WUHU216CR1000,2013-02-28 09:22:00,
2013-02-28 01:27:00,51.7,46.9,0.00,NW,304,4.3,7.9,84,0.00,,,0.00,WUHU216CR1000,2013-02-28 09:27:00,
2013-02-28 01:32:00,51.6,46.8,0.00,WNW,302,4.2,8.8,84,0.00,,,0.00,WUHU216CR1000,2013-02-28 09:32:00,
2013-02-28 01:33:00,51.6,46.8,0.00,WNW,302,4.2,8.8,84,0.00,,,0.00,WUHU216CR1000,2013-02-28 09:33:00,
2013-02-28 01:37:00,51.6,46.8,0.00,WNW,302,4.2,8.8,84,0.00,,,0.00,WUHU216CR1000,2013-02-28 09:37:00,
2013-02-28 01:42:00,51.6,46.8,0.00,WNW,302,4.2,8.8,84,0.00,,,0.00,WUHU216CR1000,2013-02-28 09:42:00,
2013-02-28 01:47:00,51.8,46.8,0.00,WNW,291,6.0,10.1,83,0.00,,,0.00,WUHU216CR1000,2013-02-28 09:47:00,
2013-02-28 01:52:00,51.8,46.8,0.00,WNW,291,6.0,10.1,83,0.00,,,0.00,WUHU216CR1000,2013-02-28 09:52:00,
2013-02-28 01:57:00,51.8,46.8,0.00,WNW,291,6.0,10.1,83,0.00,,,0.00,WUHU216CR1000,2013-02-28 09:57:00,
2013-02-28 02:02:00,52.0,46.6,0.00,WNW,296,5.4,10.4,82,0.00,,,0.00,WUHU216CR1000,2013-02-28 10:02:00,
2013-02-28 02:07:00,52.0,46.6,0.00,WNW,296,5.4,10.4,82,0.00,,,0.00,WUHU216CR1000,2013-02-28 10:07:00,
2013-02-28 02:12:00,52.0,46.6,0.00,WNW,296,5.4,10.4,82,0.00,,,0.00,WUHU216CR1000,2013-02-28 10:12:00,
2013-02-28 02:17:00,52.1,46.5,0.00,NW,305,4.8,9.2,81,0.00,,,0.00,WUHU216CR1000,2013-02-28 10:17:00,
2013-02-28 02:22:00,52.1,46.5,0.00,NW,305,4.8,9.2,81,0.00,,,0.00,WUHU216CR1000,2013-02-28 10:22:00,
2013-02-28 02:27:00,52.1,46.5,0.00,NW,305,4.8,9.2,81,0.00,,,0.00,WUHU216CR1000,2013-02-28 10:27:00,
2013-02-28 02:32:00,52.1,46.5,0.00,NW,314,3.5,7.5,81,0.00,,,0.00,WUHU216CR1000,2013-02-28 10:32:00,
2013-02-28 02:37:00,52.1,46.5,0.00,NW,314,3.5,7.5,81,0.00,,,0.00,WUHU216CR1000,2013-02-28 10:37:00,
2013-02-28 02:42:00,52.1,46.5,0.00,NW,314,3.5,7.5,81,0.00,,,0.00,WUHU216CR1000,2013-02-28 10:42:00,
2013-02-28 02:47:00,51.9,46.4,0.00,NW,319,2.8,6.7,82,0.00,,,0.00,WUHU216CR1000,2013-02-28 10:47:00,
2013-02-28 02:52:00,51.9,46.4,0.00,NW,319,2.8,6.7,82,0.00,,,0.00,WUHU216CR1000,2013-02-28 10:52:00,
2013-02-28 02:57:00,51.9,46.4,0.00,NW,319,2.8,6.7,82,0.00,,,0.00,WUHU216CR1000,2013-02-28 10:57:00,
2013-02-28 03:02:00,51.4,46.3,0.00,NNW,342,2.3,5.6,82,0.00,,,0.00,WUHU216CR1000,2013-02-28 11:02:00,
2013-02-28 03:07:00,51.4,46.3,0.00,NNW,342,2.3,5.6,82,0.00,,,0.00,WUHU216CR1000,2013-02-28 11:07:00,
2013-02-28 03:12:00,51.4,46.3,0.00,NNW,342,2.3,5.6,82,0.00,,,0.00,WUHU216CR1000,2013-02-28 11:12:00,
2013-02-28 03:17:00,50.9,46.0,0.00,NNW,332,2.7,5.4,83,0.00,,,0.00,WUHU216CR1000,2013-02-28 11:17:00,
2013-02-28 03:22:00,50.9,46.0,0.00,NNW,332,2.7,5.4,83,0.00,,,0.00,WUHU216CR1000,2013-02-28 11:22:00,
2013-02-28 03:27:00,50.9,46.0,0.00,NNW,332,2.7,5.4,83,0.00,,,0.00,WUHU216CR1000,2013-02-28 11:27:00,
2013-02-28 03:32:00,50.1,45.5,0.00,WNW,296,4.2,7.8,84,0.00,,,0.00,WUHU216CR1000,2013-02-28 11:32:00,
2013-02-28 03:37:00,50.1,45.5,0.00,WNW,296,4.2,7.8,84,0.00,,,0.00,WUHU216CR1000,2013-02-28 11:37:00,
2013-02-28 03:42:00,50.1,45.5,0.00,WNW,296,4.2,7.8,84,0.00,,,0.00,WUHU216CR1000,2013-02-28 11:42:00,
2013-02-28 03:47:00,49.7,45.4,0.00,WNW,298,3.9,7.1,85,0.00,,,0.00,WUHU216CR1000,2013-02-28 11:47:00,
2013-02-28 03:52:00,49.7,45.4,0.00,WNW,298,3.9,7.1,85,0.00,,,0.00,WUHU216CR1000,2013-02-28 11:52:00,
2013-02-28 03:57:00,49.7,45.4,0.00,WNW,298,3.9,7.1,85,0.00,,,0.00,WUHU216CR1000,2013-02-28 11:57:00,
2013-02-28 04:02:00,50.0,45.4,0.00,NNW,340,3.1,6.0,84,0.00,,,0.00,WUHU216CR1000,2013-02-28 12:02:00,
2013-02-28 04:07:00,50.0,45.4,0.00,NNW,340,3.1,6.0,84,0.00,,,0.00,WUHU216CR1000,2013-02-28 12:07:00,
2013-02-28 04:12:00,50.0,45.4,0.00,NNW,340,3.1,6.0,84,0.00,,,0.00,WUHU216CR1000,2013-02-28 12:12:00,
2013-02-28 04:17:00,49.1,45.0,0.00,NNW,345,2.7,5.9,86,0.00,,,0.00,WUHU216CR1000,2013-02-28 12:17:00,
2013-02-28 04:22:00,49.1,45.0,0.00,NNW,345,2.7,5.9,86,0.00,,,0.00,WUHU216CR1000,2013-02-28 12:22:00,
2013-02-28 04:27:00,49.1,45.0,0.00,NNW,345,2.7,5.9,86,0.00,,,0.00,WUHU216CR1000,2013-02-28 12:27:00,
2013-02-28 04:32:00,49.0,45.0,0.00,NNW,331,2.7,5.4,86,0.00,,,0.00,WUHU216CR1000,2013-02-28 12:32:00,
2013-02-28 04:37:00,49.0,45.0,0.00,NNW,331,2.7,5.4,86,0.00,,,0.00,WUHU216CR1000,2013-02-28 12:37:00,
2013-02-28 04:42:00,49.0,45.0,0.00,NNW,331,2.7,5.4,86,0.00,,,0.00,WUHU216CR1000,2013-02-28 12:42:00,
2013-02-28 04:47:00,48.7,44.9,0.00,North,4,3.0,5.7,87,0.00,,,0.00,WUHU216CR1000,2013-02-28 12:47:00,
2013-02-28 04:52:00,48.7,44.9,0.00,North,4,3.0,5.7,87,0.00,,,0.00,WUHU216CR1000,2013-02-28 12:52:00,
2013-02-28 04:57:00,48.7,44.9,0.00,North,4,3.0,5.7,87,0.00,,,0.00,WUHU216CR1000,2013-02-28 12:57:00,
2013-02-28 05:02:00,48.3,44.8,0.00,North,8,3.1,6.1,88,0.00,,,0.00,WUHU216CR1000,2013-02-28 13:02:00,
2013-02-28 05:07:00,48.3,44.8,0.00,North,8,3.1,6.1,88,0.00,,,0.00,WUHU216CR1000,2013-02-28 13:07:00,
2013-02-28 05:12:00,48.3,44.8,0.00,North,8,3.1,6.1,88,0.00,,,0.00,WUHU216CR1000,2013-02-28 13:12:00,
2013-02-28 05:17:00,48.4,44.8,0.00,NNW,347,2.7,5.3,87,0.00,,,0.00,WUHU216CR1000,2013-02-28 13:17:00,
2013-02-28 05:22:00,48.4,44.8,0.00,NNW,347,2.7,5.3,87,0.00,,,0.00,WUHU216CR1000,2013-02-28 13:22:00,
2013-02-28 05:27:00,48.4,44.8,0.00,NNW,347,2.7,5.3,87,0.00,,,0.00,WUHU216CR1000,2013-02-28 13:27:00,
2013-02-28 05:32:00,49.1,45.3,0.00,NNW,340,2.9,5.8,87,0.00,,,0.00,WUHU216CR1000,2013-02-28 13:32:00,
2013-02-28 05:37:00,49.1,45.3,0.00,NNW,340,2.9,5.8,87,0.00,,,0.00,WUHU216CR1000,2013-02-28 13:37:00,
2013-02-28 05:42:00,49.1,45.3,0.00,NNW,340,2.9,5.8,87,0.00,,,0.00,WUHU216CR1000,2013-02-28 13:42:00,
2013-02-28 05:47:00,48.0,44.5,0.00,North,352,3.0,6.9,88,0.00,,,0.00,WUHU216CR1000,2013-02-28 13:47:00,
2013-02-28 05:52:00,48.0,44.5,0.00,North,352,3.0,6.9,88,0.00,,,0.00,WUHU216CR1000,2013-02-28 13:52:00,
2013-02-28 05:57:00,48.0,44.5,0.00,North,352,3.0,6.9,88,0.00,,,0.00,WUHU216CR1000,2013-02-28 13:57:00,
2013-02-28 06:02:00,48.3,44.9,0.00,NW,314,2.6,6.4,88,0.00,,,0.00,WUHU216CR1000,2013-02-28 14:02:00,
2013-02-28 06:07:00,48.3,44.9,0.00,NW,314,2.6,6.4,88,0.00,,,0.00,WUHU216CR1000,2013-02-28 14:07:00,
2013-02-28 06:12:00,48.3,44.9,0.00,NW,314,2.6,6.4,88,0.00,,,0.00,WUHU216CR1000,2013-02-28 14:12:00,
2013-02-28 06:17:00,47.9,44.8,0.00,NW,305,3.3,6.7,89,0.00,,,0.00,WUHU216CR1000,2013-02-28 14:17:00,
2013-02-28 06:22:00,47.9,44.8,0.00,NW,305,3.3,6.7,89,0.00,,,0.00,WUHU216CR1000,2013-02-28 14:22:00,
2013-02-28 06:27:00,47.9,44.8,0.00,NW,305,3.3,6.7,89,0.00,,,0.00,WUHU216CR1000,2013-02-28 14:27:00,
2013-02-28 06:32:00,48.7,45.3,0.00,NW,315,2.9,6.7,88,0.00,,,0.00,WUHU216CR1000,2013-02-28 14:32:00,
2013-02-28 06:37:00,48.7,45.3,0.00,NW,315,2.9,6.7,88,0.00,,,0.00,WUHU216CR1000,2013-02-28 14:37:00,
2013-02-28 06:42:00,48.7,45.3,0.00,NW,315,2.9,6.7,88,0.00,,,0.00,WUHU216CR1000,2013-02-28 14:42:00,
2013-02-28 06:47:00,49.1,45.5,0.00,NW,316,2.8,6.6,87,0.00,,,0.00,WUHU216CR1000,2013-02-28 14:47:00,
2013-02-28 06:52:00,49.1,45.5,0.00,NW,316,2.8,6.6,87,0.00,,,0.00,WUHU216CR1000,2013-02-28 14:52:00,
2013-02-28 06:57:00,49.1,45.5,0.00,NW,316,2.8,6.6,87,0.00,,,0.00,WUHU216CR1000,2013-02-28 14:57:00,
2013-02-28 07:02:00,49.4,45.7,0.00,NW,312,3.2,6.7,87,0.00,,,0.00,WUHU216CR1000,2013-02-28 15:02:00,
2013-02-28 07:07:00,49.4,45.7,0.00,NW,312,3.2,6.7,87,0.00,,,0.00,WUHU216CR1000,2013-02-28 15:07:00,
2013-02-28 07:12:00,49.4,45.7,0.00,NW,312,3.2,6.7,87,0.00,,,0.00,WUHU216CR1000,2013-02-28 15:12:00,
2013-02-28 07:17:00,49.9,45.7,0.00,North,352,3.0,6.6,85,0.00,,,0.00,WUHU216CR1000,2013-02-28 15:17:00,
2013-02-28 07:22:00,49.9,45.7,0.00,North,352,3.0,6.6,85,0.00,,,0.00,WUHU216CR1000,2013-02-28 15:22:00,
2013-02-28 07:27:00,49.9,45.7,0.00,North,352,3.0,6.6,85,0.00,,,0.00,WUHU216CR1000,2013-02-28 15:27:00,
2013-02-28 07:32:00,50.2,45.8,0.00,North,350,2.7,6.2,85,0.00,,,0.00,WUHU216CR1000,2013-02-28 15:32:00,
2013-02-28 07:37:00,50.2,45.8,0.00,North,350,2.7,6.2,85,0.00,,,0.00,WUHU216CR1000,2013-02-28 15:37:00,
2013-02-28 07:42:00,50.2,45.8,0.00,North,350,2.7,6.2,85,0.00,,,0.00,WUHU216CR1000,2013-02-28 15:42:00,
2013-02-28 07:47:00,50.7,45.9,0.00,NNW,328,2.1,4.9,84,0.00,,,0.00,WUHU216CR1000,2013-02-28 15:47:00,
2013-02-28 07:52:00,50.7,45.9,0.00,NNW,328,2.1,4.9,84,0.00,,,0.00,WUHU216CR1000,2013-02-28 15:52:00,
2013-02-28 07:57:00,50.7,45.9,0.00,NNW,328,2.1,4.9,84,0.00,,,0.00,WUHU216CR1000,2013-02-28 15:57:00,
2013-02-28 08:02:00,51.9,46.4,0.00,NW,311,3.1,7.8,82,0.00,,,0.00,WUHU216CR1000,2013-02-28 16:02:00,
2013-02-28 08:07:00,51.9,46.4,0.00,NW,311,3.1,7.8,82,0.00,,,0.00,WUHU216CR1000,2013-02-28 16:07:00,
2013-02-28 08:12:00,51.9,46.4,0.00,NW,311,3.1,7.8,82,0.00,,,0.00,WUHU216CR1000,2013-02-28 16:12:00,
2013-02-28 08:17:00,53.0,46.6,0.00,NW,317,4.6,8.6,79,0.00,,,0.00,WUHU216CR1000,2013-02-28 16:17:00,
2013-02-28 08:22:00,53.0,46.6,0.00,NW,317,4.6,8.6,79,0.00,,,0.00,WUHU216CR1000,2013-02-28 16:22:00,
2013-02-28 08:27:00,53.0,46.6,0.00,NW,317,4.6,8.6,79,0.00,,,0.00,WUHU216CR1000,2013-02-28 16:27:00,
2013-02-28 08:32:00,54.4,47.1,0.00,NW,316,4.6,10.4,76,0.00,,,0.00,WUHU216CR1000,2013-02-28 16:32:00,
2013-02-28 08:37:00,54.4,47.1,0.00,NW,316,4.6,10.4,76,0.00,,,0.00,WUHU216CR1000,2013-02-28 16:37:00,
2013-02-28 08:42:00,54.4,47.1,0.00,NW,316,4.6,10.4,76,0.00,,,0.00,WUHU216CR1000,2013-02-28 16:42:00,
2013-02-28 08:47:00,55.8,47.7,0.00,NW,315,4.7,9.4,74,0.00,,,0.00,WUHU216CR1000,2013-02-28 16:47:00,
2013-02-28 08:52:00,55.8,47.7,0.00,NW,315,4.7,9.4,74,0.00,,,0.00,WUHU216CR1000,2013-02-28 16:52:00,
2013-02-28 08:57:00,55.8,47.7,0.00,NW,315,4.7,9.4,74,0.00,,,0.00,WUHU216CR1000,2013-02-28 16:57:00,
2013-02-28 09:02:00,56.9,48.2,0.00,NW,314,5.1,10.5,73,0.00,,,0.00,WUHU216CR1000,2013-02-28 17:02:00,
2013-02-28 09:07:00,56.9,48.2,0.00,NW,314,5.1,10.5,73,0.00,,,0.00,WUHU216CR1000,2013-02-28 17:07:00,
2013-02-28 09:12:00,56.9,48.2,0.00,NW,314,5.1,10.5,73,0.00,,,0.00,WUHU216CR1000,2013-02-28 17:12:00,
2013-02-28 09:17:00,58.1,48.4,0.00,NW,311,5.0,10.5,70,0.00,,,0.00,WUHU216CR1000,2013-02-28 17:17:00,
2013-02-28 09:22:00,58.1,48.4,0.00,NW,311,5.0,10.5,70,0.00,,,0.00,WUHU216CR1000,2013-02-28 17:22:00,
2013-02-28 09:27:00,58.1,48.4,0.00,NW,311,5.0,10.5,70,0.00,,,0.00,WUHU216CR1000,2013-02-28 17:27:00,
2013-02-28 09:32:00,58.9,48.4,0.00,NW,309,5.4,11.7,68,0.00,,,0.00,WUHU216CR1000,2013-02-28 17:32:00,
2013-02-28 09:33:00,58.9,48.4,0.00,NW,309,5.4,11.7,68,0.00,,,0.00,WUHU216CR1000,2013-02-28 17:33:00,
2013-02-28 09:37:00,58.9,48.4,0.00,NW,309,5.4,11.7,68,0.00,,,0.00,WUHU216CR1000,2013-02-28 17:37:00,
2013-02-28 09:42:00,58.9,48.4,0.00,NW,309,5.4,11.7,68,0.00,,,0.00,WUHU216CR1000,2013-02-28 17:42:00,
2013-02-28 09:47:00,59.9,48.9,0.00,WNW,296,6.8,12.3,67,0.00,,,0.00,WUHU216CR1000,2013-02-28 17:47:00,
2013-02-28 09:52:00,59.9,48.9,0.00,WNW,296,6.8,12.3,67,0.00,,,0.00,WUHU216CR1000,2013-02-28 17:52:00,
2013-02-28 09:57:00,59.9,48.9,0.00,WNW,296,6.8,12.3,67,0.00,,,0.00,WUHU216CR1000,2013-02-28 17:57:00,
2013-02-28 10:02:00,61.0,49.3,0.00,WNW,293,6.1,11.4,65,0.00,,,0.00,WUHU216CR1000,2013-02-28 18:02:00,
2013-02-28 10:07:00,61.0,49.3,0.00,WNW,293,6.1,11.4,65,0.00,,,0.00,WUHU216CR1000,2013-02-28 18:07:00,
2013-02-28 10:12:00,61.0,49.3,0.00,WNW,293,6.1,11.4,65,0.00,,,0.00,WUHU216CR1000,2013-02-28 18:12:00,
2013-02-28 10:17:00,62.2,49.8,0.00,WNW,292,5.5,12.6,64,0.00,,,0.00,WUHU216CR1000,2013-02-28 18:17:00,
2013-02-28 10:22:00,62.2,49.8,0.00,WNW,292,5.5,12.6,64,0.00,,,0.00,WUHU216CR1000,2013-02-28 18:22:00,
2013-02-28 10:27:00,62.2,49.8,0.00,WNW,292,5.5,12.6,64,0.00,,,0.00,WUHU216CR1000,2013-02-28 18:27:00,
2013-02-28 10:32:00,62.9,49.4,0.00,NW,322,4.6,10.2,61,0.00,,,0.00,WUHU216CR1000,2013-02-28 18:32:00,
2013-02-28 10:33:00,62.9,49.4,0.00,NW,322,4.6,10.2,61,0.00,,,0.00,WUHU216CR1000,2013-02-28 18:33:00,
2013-02-28 10:37:00,62.9,49.4,0.00,NW,322,4.6,10.2,61,0.00,,,0.00,WUHU216CR1000,2013-02-28 18:37:00,
2013-02-28 10:42:00,62.9,49.4,0.00,NW,322,4.6,10.2,61,0.00,,,0.00,WUHU216CR1000,2013-02-28 18:42:00,
2013-02-28 10:47:00,64.1,49.8,0.00,NNW,327,4.5,10.0,60,0.00,,,0.00,WUHU216CR1000,2013-02-28 18:47:00,
2013-02-28 10:48:00,64.1,49.8,0.00,NNW,327,4.5,10.0,60,0.00,,,0.00,WUHU216CR1000,2013-02-28 18:48:00,
2013-02-28 10:52:00,64.1,49.8,0.00,NNW,327,4.5,10.0,60,0.00,,,0.00,WUHU216CR1000,2013-02-28 18:52:00,
2013-02-28 10:57:00,64.1,49.8,0.00,NNW,327,4.5,10.0,60,0.00,,,0.00,WUHU216CR1000,2013-02-28 18:57:00,
2013-02-28 11:02:00,65.0,50.3,0.00,NW,312,3.5,8.7,59,0.00,,,0.00,WUHU216CR1000,2013-02-28 19:02:00,
2013-02-28 11:07:00,65.0,50.3,0.00,NW,312,3.5,8.7,59,0.00,,,0.00,WUHU216CR1000,2013-02-28 19:07:00,
2013-02-28 11:12:00,65.0,50.3,0.00,NW,312,3.5,8.7,59,0.00,,,0.00,WUHU216CR1000,2013-02-28 19:12:00,
2013-02-28 11:17:00,65.7,50.3,0.00,NW,308,4.7,9.1,58,0.00,,,0.00,WUHU216CR1000,2013-02-28 19:17:00,
2013-02-28 11:22:00,65.7,50.3,0.00,NW,308,4.7,9.1,58,0.00,,,0.00,WUHU216CR1000,2013-02-28 19:22:00,
2013-02-28 11:27:00,65.7,50.3,0.00,NW,308,4.7,9.1,58,0.00,,,0.00,WUHU216CR1000,2013-02-28 19:27:00,
2013-02-28 11:32:00,66.4,50.7,0.00,NW,311,4.8,11.4,57,0.00,,,0.00,WUHU216CR1000,2013-02-28 19:32:00,
2013-02-28 11:37:00,66.4,50.7,0.00,NW,311,4.8,11.4,57,0.00,,,0.00,WUHU216CR1000,2013-02-28 19:37:00,
2013-02-28 11:42:00,66.4,50.7,0.00,NW,311,4.8,11.4,57,0.00,,,0.00,WUHU216CR1000,2013-02-28 19:42:00,
2013-02-28 11:47:00,67.0,50.9,0.00,WNW,292,5.4,13.8,56,0.00,,,0.00,WUHU216CR1000,2013-02-28 19:47:00,
2013-02-28 11:52:00,67.0,50.9,0.00,WNW,292,5.4,13.8,56,0.00,,,0.00,WUHU216CR1000,2013-02-28 19:52:00,
2013-02-28 11:57:00,67.0,50.9,0.00,WNW,292,5.4,13.8,56,0.00,,,0.00,WUHU216CR1000,2013-02-28 19:57:00,
2013-02-28 12:02:00,67.5,51.5,0.00,WNW,289,4.8,9.8,57,0.00,,,0.00,WUHU216CR1000,2013-02-28 20:02:00,
2013-02-28 12:07:00,67.5,51.5,0.00,WNW,289,4.8,9.8,57,0.00,,,0.00,WUHU216CR1000,2013-02-28 20:07:00,
2013-02-28 12:17:00,68.0,50.8,0.00,NW,306,4.0,11.0,54,0.00,,,0.00,WUHU216CR1000,2013-02-28 20:17:00,
2013-02-28 12:22:00,68.0,50.8,0.00,NW,306,4.0,11.0,54,0.00,,,0.00,WUHU216CR1000,2013-02-28 20:22:00,
2013-02-28 12:27:00,68.0,50.8,0.00,NW,306,4.0,11.0,54,0.00,,,0.00,WUHU216CR1000,2013-02-28 20:27:00,
2013-02-28 12:32:00,68.3,51.0,0.00,WNW,300,5.4,16.1,54,0.00,,,0.00,WUHU216CR1000,2013-02-28 20:32:00,
2013-02-28 12:37:00,68.3,51.0,0.00,WNW,300,5.4,16.1,54,0.00,,,0.00,WUHU216CR1000,2013-02-28 20:37:00,
2013-02-28 12:42:00,68.3,51.0,0.00,WNW,300,5.4,16.1,54,0.00,,,0.00,WUHU216CR1000,2013-02-28 20:42:00,
2013-02-28 12:47:00,69.1,51.0,0.00,WNW,288,5.2,10.3,53,0.00,,,0.00,WUHU216CR1000,2013-02-28 20:47:00,
2013-02-28 12:52:00,69.1,51.0,0.00,WNW,288,5.2,10.3,53,0.00,,,0.00,WUHU216CR1000,2013-02-28 20:52:00,
2013-02-28 12:57:00,69.1,51.0,0.00,WNW,288,5.2,10.3,53,0.00,,,0.00,WUHU216CR1000,2013-02-28 20:57:00,
2013-02-28 13:02:00,69.5,50.7,0.00,WNW,298,5.6,10.6,51,0.00,,,0.00,WUHU216CR1000,2013-02-28 21:02:00,
2013-02-28 13:07:00,69.5,50.7,0.00,WNW,298,5.6,10.6,51,0.00,,,0.00,WUHU216CR1000,2013-02-28 21:07:00,
2013-02-28 13:12:00,69.5,50.7,0.00,WNW,298,5.6,10.6,51,0.00,,,0.00,WUHU216CR1000,2013-02-28 21:12:00,
2013-02-28 13:17:00,70.0,50.7,0.00,NW,306,4.6,10.9,50,0.00,,,0.00,WUHU216CR1000,2013-02-28 21:17:00,
2013-02-28 13:22:00,70.0,50.7,0.00,NW,306,4.6,10.9,50,0.00,,,0.00,WUHU216CR1000,2013-02-28 21:22:00,
2013-02-28 13:27:00,70.0,50.7,0.00,NW,306,4.6,10.9,50,0.00,,,0.00,WUHU216CR1000,2013-02-28 21:27:00,
2013-02-28 13:32:00,70.7,51.0,0.00,NW,314,4.0,9.6,50,0.00,,,0.00,WUHU216CR1000,2013-02-28 21:32:00,
2013-02-28 13:37:00,70.7,51.0,0.00,NW,314,4.0,9.6,50,0.00,,,0.00,WUHU216CR1000,2013-02-28 21:37:00,
2013-02-28 13:42:00,70.7,51.0,0.00,NW,314,4.0,9.6,50,0.00,,,0.00,WUHU216CR1000,2013-02-28 21:42:00,
2013-02-28 13:47:00,71.3,52.0,0.00,WNW,301,4.6,10.2,51,0.00,,,0.00,WUHU216CR1000,2013-02-28 21:47:00,
2013-02-28 13:52:00,71.3,52.0,0.00,WNW,301,4.6,10.2,51,0.00,,,0.00,WUHU216CR1000,2013-02-28 21:52:00,
2013-02-28 13:57:00,71.3,52.0,0.00,WNW,301,4.6,10.2,51,0.00,,,0.00,WUHU216CR1000,2013-02-28 21:57:00,
2013-02-28 14:02:00,71.4,51.9,0.00,NW,308,4.7,11.5,50,0.00,,,0.00,WUHU216CR1000,2013-02-28 22:02:00,
2013-02-28 14:07:00,71.4,51.9,0.00,NW,308,4.7,11.5,50,0.00,,,0.00,WUHU216CR1000,2013-02-28 22:07:00,
2013-02-28 14:17:00,70.1,51.4,0.00,WNW,301,4.3,9.1,52,0.00,,,0.00,WUHU216CR1000,2013-02-28 22:17:00,
2013-02-28 14:18:00,70.1,51.4,0.00,WNW,301,4.3,9.1,52,0.00,,,0.00,WUHU216CR1000,2013-02-28 22:18:00,
2013-02-28 14:22:00,70.1,51.4,0.00,WNW,301,4.3,9.1,52,0.00,,,0.00,WUHU216CR1000,2013-02-28 22:22:00,
2013-02-28 14:27:00,70.1,51.4,0.00,WNW,301,4.3,9.1,52,0.00,,,0.00,WUHU216CR1000,2013-02-28 22:27:00,
2013-02-28 14:32:00,71.0,52.2,0.00,WNW,301,5.5,12.3,51,0.00,,,0.00,WUHU216CR1000,2013-02-28 22:32:00,
2013-02-28 14:37:00,71.0,52.2,0.00,WNW,301,5.5,12.3,51,0.00,,,0.00,WUHU216CR1000,2013-02-28 22:37:00,
2013-02-28 14:42:00,71.0,52.2,0.00,WNW,301,5.5,12.3,51,0.00,,,0.00,WUHU216CR1000,2013-02-28 22:42:00,
2013-02-28 14:47:00,71.3,52.3,0.00,WNW,288,6.5,11.5,51,0.00,,,0.00,WUHU216CR1000,2013-02-28 22:47:00,
2013-02-28 14:52:00,71.3,52.3,0.00,WNW,288,6.5,11.5,51,0.00,,,0.00,WUHU216CR1000,2013-02-28 22:52:00,
2013-02-28 14:57:00,71.3,52.3,0.00,WNW,288,6.5,11.5,51,0.00,,,0.00,WUHU216CR1000,2013-02-28 22:57:00,
2013-02-28 15:02:00,71.4,52.4,0.00,WNW,286,7.6,14.5,51,0.00,,,0.00,WUHU216CR1000,2013-02-28 23:02:00,
2013-02-28 15:03:00,71.4,52.4,0.00,WNW,286,7.6,14.5,51,0.00,,,0.00,WUHU216CR1000,2013-02-28 23:03:00,
2013-02-28 15:07:00,71.4,52.4,0.00,WNW,286,7.6,14.5,51,0.00,,,0.00,WUHU216CR1000,2013-02-28 23:07:00,
2013-02-28 15:12:00,71.4,52.4,0.00,WNW,286,7.6,14.5,51,0.00,,,0.00,WUHU216CR1000,2013-02-28 23:12:00,
2013-02-28 15:17:00,71.2,52.4,0.00,WNW,286,7.2,12.3,52,0.00,,,0.00,WUHU216CR1000,2013-02-28 23:17:00,
2013-02-28 15:22:00,71.2,52.4,0.00,WNW,286,7.2,12.3,52,0.00,,,0.00,WUHU216CR1000,2013-02-28 23:22:00,
2013-02-28 15:27:00,71.2,52.4,0.00,WNW,286,7.2,12.3,52,0.00,,,0.00,WUHU216CR1000,2013-02-28 23:27:00,
2013-02-28 15:32:00,71.3,52.3,0.00,WNW,288,6.7,12.9,51,0.00,,,0.00,WUHU216CR1000,2013-02-28 23:32:00,
2013-02-28 15:37:00,71.3,52.3,0.00,WNW,288,6.7,12.9,51,0.00,,,0.00,WUHU216CR1000,2013-02-28 23:37:00,
2013-02-28 15:42:00,71.3,52.3,0.00,WNW,288,6.7,12.9,51,0.00,,,0.00,WUHU216CR1000,2013-02-28 23:42:00,
2013-02-28 15:47:00,71.2,51.7,0.00,WNW,290,7.1,14.1,50,0.00,,,0.00,WUHU216CR1000,2013-02-28 23:47:00,
2013-02-28 15:52:00,71.2,51.7,0.00,WNW,290,7.1,14.1,50,0.00,,,0.00,WUHU216CR1000,2013-02-28 23:52:00,
2013-02-28 15:57:00,71.2,51.7,0.00,WNW,290,7.1,14.1,50,0.00,,,0.00,WUHU216CR1000,2013-02-28 23:57:00,
2013-02-28 16:02:00,70.8,51.9,0.00,WNW,284,7.3,11.8,51,0.00,,,0.00,WUHU216CR1000,2013-03-01 00:02:00,
2013-02-28 16:07:00,70.8,51.9,0.00,WNW,284,7.3,11.8,51,0.00,,,0.00,WUHU216CR1000,2013-03-01 00:07:00,
2013-02-28 16:17:00,71.0,51.6,0.00,WNW,296,5.8,10.7,50,0.00,,,0.00,WUHU216CR1000,2013-03-01 00:17:00,
2013-02-28 16:22:00,71.0,51.6,0.00,WNW,296,5.8,10.7,50,0.00,,,0.00,WUHU216CR1000,2013-03-01 00:22:00,
2013-02-28 16:27:00,71.0,51.6,0.00,WNW,296,5.8,10.7,50,0.00,,,0.00,WUHU216CR1000,2013-03-01 00:27:00,
2013-02-28 16:32:00,71.2,51.3,0.00,WNW,292,5.3,9.4,49,0.00,,,0.00,WUHU216CR1000,2013-03-01 00:32:00,
2013-02-28 16:37:00,71.2,51.3,0.00,WNW,292,5.3,9.4,49,0.00,,,0.00,WUHU216CR1000,2013-03-01 00:37:00,
2013-02-28 16:42:00,71.2,51.3,0.00,WNW,292,5.3,9.4,49,0.00,,,0.00,WUHU216CR1000,2013-03-01 00:42:00,
2013-02-28 16:47:00,70.6,51.2,0.00,WNW,289,5.2,10.5,50,0.00,,,0.00,WUHU216CR1000,2013-03-01 00:47:00,
2013-02-28 16:48:00,70.6,51.2,0.00,WNW,289,5.2,10.5,50,0.00,,,0.00,WUHU216CR1000,2013-03-01 00:48:00,
2013-02-28 16:52:00,70.6,51.2,0.00,WNW,289,5.2,10.5,50,0.00,,,0.00,WUHU216CR1000,2013-03-01 00:52:00,
2013-02-28 16:57:00,70.6,51.2,0.00,WNW,289,5.2,10.5,50,0.00,,,0.00,WUHU216CR1000,2013-03-01 00:57:00,
2013-02-28 17:02:00,70.4,51.2,0.00,WNW,290,4.9,8.9,51,0.00,,,0.00,WUHU216CR1000,2013-03-01 01:02:00,
2013-02-28 17:07:00,70.4,51.2,0.00,WNW,290,4.9,8.9,51,0.00,,,0.00,WUHU216CR1000,2013-03-01 01:07:00,
2013-02-28 17:12:00,70.4,51.2,0.00,WNW,290,4.9,8.9,51,0.00,,,0.00,WUHU216CR1000,2013-03-01 01:12:00,
2013-02-28 17:17:00,69.3,50.8,0.00,WNW,287,5.5,9.1,52,0.00,,,0.00,WUHU216CR1000,2013-03-01 01:17:00,
2013-02-28 17:22:00,69.3,50.8,0.00,WNW,287,5.5,9.1,52,0.00,,,0.00,WUHU216CR1000,2013-03-01 01:22:00,
2013-02-28 17:27:00,69.3,50.8,0.00,WNW,287,5.5,9.1,52,0.00,,,0.00,WUHU216CR1000,2013-03-01 01:27:00,
2013-02-28 17:32:00,68.2,50.9,0.00,WNW,285,5.1,8.9,54,0.00,,,0.00,WUHU216CR1000,2013-03-01 01:32:00,
2013-02-28 17:37:00,68.2,50.9,0.00,WNW,285,5.1,8.9,54,0.00,,,0.00,WUHU216CR1000,2013-03-01 01:37:00,
2013-02-28 17:42:00,68.2,50.9,0.00,WNW,285,5.1,8.9,54,0.00,,,0.00,WUHU216CR1000,2013-03-01 01:42:00,
2013-02-28 17:47:00,66.7,50.6,0.00,West,280,5.8,10.3,56,0.00,,,0.00,WUHU216CR1000,2013-03-01 01:47:00,
2013-02-28 17:48:00,66.7,50.6,0.00,West,280,5.8,10.3,56,0.00,,,0.00,WUHU216CR1000,2013-03-01 01:48:00,
2013-02-28 17:52:00,66.7,50.6,0.00,West,280,5.8,10.3,56,0.00,,,0.00,WUHU216CR1000,2013-03-01 01:52:00,
2013-02-28 17:57:00,66.7,50.6,0.00,West,280,5.8,10.3,56,0.00,,,0.00,WUHU216CR1000,2013-03-01 01:57:00,
2013-02-28 18:02:00,64.8,50.5,0.00,WNW,284,4.1,7.5,60,0.00,,,0.00,WUHU216CR1000,2013-03-01 02:02:00,
2013-02-28 18:03:00,64.8,50.5,0.00,WNW,284,4.1,7.5,60,0.00,,,0.00,WUHU216CR1000,2013-03-01 02:03:00,
2013-02-28 18:07:00,64.8,50.5,0.00,WNW,284,4.1,7.5,60,0.00,,,0.00,WUHU216CR1000,2013-03-01 02:07:00,
2013-02-28 18:12:00,64.8,50.5,0.00,WNW,284,4.1,7.5,60,0.00,,,0.00,WUHU216CR1000,2013-03-01 02:12:00,
2013-02-28 18:17:00,63.8,50.2,0.00,NW,316,2.8,7.8,61,0.00,,,0.00,WUHU216CR1000,2013-03-01 02:17:00,
2013-02-28 18:22:00,63.8,50.2,0.00,NW,316,2.8,7.8,61,0.00,,,0.00,WUHU216CR1000,2013-03-01 02:22:00,
2013-02-28 18:27:00,63.8,50.2,0.00,NW,316,2.8,7.8,61,0.00,,,0.00,WUHU216CR1000,2013-03-01 02:27:00,
2013-02-28 18:32:00,63.4,49.9,0.00,NW,325,2.2,5.5,61,0.00,,,0.00,WUHU216CR1000,2013-03-01 02:32:00,
2013-02-28 18:37:00,63.4,49.9,0.00,NW,325,2.2,5.5,61,0.00,,,0.00,WUHU216CR1000,2013-03-01 02:37:00,
2013-02-28 18:42:00,63.4,49.9,0.00,NW,325,2.2,5.5,61,0.00,,,0.00,WUHU216CR1000,2013-03-01 02:42:00,
2013-02-28 18:47:00,61.4,50.0,0.00,WNW,290,3.0,4.9,66,0.00,,,0.00,WUHU216CR1000,2013-03-01 02:47:00,
2013-02-28 18:52:00,61.4,50.0,0.00,WNW,290,3.0,4.9,66,0.00,,,0.00,WUHU216CR1000,2013-03-01 02:52:00,
2013-02-28 18:57:00,61.4,50.0,0.00,WNW,290,3.0,4.9,66,0.00,,,0.00,WUHU216CR1000,2013-03-01 02:57:00,
2013-02-28 19:02:00,60.0,49.5,0.00,WSW,255,2.2,3.7,68,0.00,,,0.00,WUHU216CR1000,2013-03-01 03:02:00,
2013-02-28 19:07:00,60.0,49.5,0.00,WSW,255,2.2,3.7,68,0.00,,,0.00,WUHU216CR1000,2013-03-01 03:07:00,
2013-02-28 19:12:00,60.0,49.5,0.00,WSW,255,2.2,3.7,68,0.00,,,0.00,WUHU216CR1000,2013-03-01 03:12:00,
2013-02-28 19:17:00,58.0,49.0,0.00,West,281,2.2,4.3,72,0.00,,,0.00,WUHU216CR1000,2013-03-01 03:17:00,
2013-02-28 19:22:00,58.0,49.0,0.00,West,281,2.2,4.3,72,0.00,,,0.00,WUHU216CR1000,2013-03-01 03:22:00,
2013-02-28 19:27:00,58.0,49.0,0.00,West,281,2.2,4.3,72,0.00,,,0.00,WUHU216CR1000,2013-03-01 03:27:00,
2013-02-28 19:32:00,59.0,49.8,0.00,NW,321,2.2,4.5,71,0.00,,,0.00,WUHU216CR1000,2013-03-01 03:32:00,
2013-02-28 19:37:00,59.0,49.8,0.00,NW,321,2.2,4.5,71,0.00,,,0.00,WUHU216CR1000,2013-03-01 03:37:00,
2013-02-28 19:42:00,59.0,49.8,0.00,NW,321,2.2,4.5,71,0.00,,,0.00,WUHU216CR1000,2013-03-01 03:42:00,
2013-02-28 19:47:00,57.2,49.4,0.00,West,273,2.1,3.5,75,0.00,,,0.00,WUHU216CR1000,2013-03-01 03:47:00,
2013-02-28 19:52:00,57.2,49.4,0.00,West,273,2.1,3.5,75,0.00,,,0.00,WUHU216CR1000,2013-03-01 03:52:00,
2013-02-28 19:57:00,57.2,49.4,0.00,West,273,2.1,3.5,75,0.00,,,0.00,WUHU216CR1000,2013-03-01 03:57:00,
2013-02-28 20:02:00,57.3,49.4,0.00,West,278,3.0,5.5,75,0.00,,,0.00,WUHU216CR1000,2013-03-01 04:02:00,
2013-02-28 20:07:00,57.3,49.4,0.00,West,278,3.0,5.5,75,0.00,,,0.00,WUHU216CR1000,2013-03-01 04:07:00,
2013-02-28 20:17:00,56.7,49.4,0.00,WNW,284,3.8,7.1,77,0.00,,,0.00,WUHU216CR1000,2013-03-01 04:17:00,
2013-02-28 20:22:00,56.7,49.4,0.00,WNW,284,3.8,7.1,77,0.00,,,0.00,WUHU216CR1000,2013-03-01 04:22:00,
2013-02-28 20:27:00,56.7,49.4,0.00,WNW,284,3.8,7.1,77,0.00,,,0.00,WUHU216CR1000,2013-03-01 04:27:00,
2013-02-28 20:32:00,56.2,49.3,0.00,WNW,284,2.7,4.5,77,0.00,,,0.00,WUHU216CR1000,2013-03-01 04:32:00,
2013-02-28 20:37:00,56.2,49.3,0.00,WNW,284,2.7,4.5,77,0.00,,,0.00,WUHU216CR1000,2013-03-01 04:37:00,
2013-02-28 20:42:00,56.2,49.3,0.00,WNW,284,2.7,4.5,77,0.00,,,0.00,WUHU216CR1000,2013-03-01 04:42:00,
2013-02-28 20:47:00,55.4,48.6,0.00,WNW,293,2.4,4.1,78,0.00,,,0.00,WUHU216CR1000,2013-03-01 04:47:00,
2013-02-28 20:52:00,55.4,48.6,0.00,WNW,293,2.4,4.1,78,0.00,,,0.00,WUHU216CR1000,2013-03-01 04:52:00,
2013-02-28 20:57:00,55.4,48.6,0.00,WNW,293,2.4,4.1,78,0.00,,,0.00,WUHU216CR1000,2013-03-01 04:57:00,
2013-02-28 21:02:00,53.8,48.3,0.00,WNW,296,2.0,4.2,82,0.00,,,0.00,WUHU216CR1000,2013-03-01 05:02:00,
2013-02-28 21:06:00,53.8,48.3,0.00,WNW,296,2.0,4.2,82,0.00,,,0.00,WUHU216CR1000,2013-03-01 05:06:00,
2013-02-28 21:11:00,53.8,48.3,0.00,WNW,296,2.0,4.2,82,0.00,,,0.00,WUHU216CR1000,2013-03-01 05:11:00,
2013-02-28 21:17:00,54.5,48.6,0.00,WNW,286,3.1,5.6,80,0.00,,,0.00,WUHU216CR1000,2013-03-01 05:17:00,
2013-02-28 21:22:00,54.5,48.6,0.00,WNW,286,3.1,5.6,80,0.00,,,0.00,WUHU216CR1000,2013-03-01 05:22:00,
2013-02-28 21:27:00,54.5,48.6,0.00,WNW,286,3.1,5.6,80,0.00,,,0.00,WUHU216CR1000,2013-03-01 05:27:00,
2013-02-28 21:32:00,53.5,48.2,0.00,West,266,3.6,6.5,82,0.00,,,0.00,WUHU216CR1000,2013-03-01 05:32:00,
2013-02-28 21:37:00,53.5,48.2,0.00,West,266,3.6,6.5,82,0.00,,,0.00,WUHU216CR1000,2013-03-01 05:37:00,
2013-02-28 21:42:00,53.5,48.2,0.00,West,266,3.6,6.5,82,0.00,,,0.00,WUHU216CR1000,2013-03-01 05:42:00,
2013-02-28 21:47:00,53.6,48.4,0.00,WNW,290,4.1,8.1,83,0.00,,,0.00,WUHU216CR1000,2013-03-01 05:47:00,
2013-02-28 21:52:00,53.6,48.4,0.00,WNW,290,4.1,8.1,83,0.00,,,0.00,WUHU216CR1000,2013-03-01 05:52:00,
2013-02-28 21:57:00,53.6,48.4,0.00,WNW,290,4.1,8.1,83,0.00,,,0.00,WUHU216CR1000,2013-03-01 05:57:00,
2013-02-28 22:02:00,54.9,49.0,0.00,NW,304,4.5,9.8,80,0.00,,,0.00,WUHU216CR1000,2013-03-01 06:02:00,
2013-02-28 22:07:00,54.9,49.0,0.00,NW,304,4.5,9.8,80,0.00,,,0.00,WUHU216CR1000,2013-03-01 06:07:00,
2013-02-28 22:17:00,54.6,48.8,0.00,WNW,300,4.5,9.4,81,0.00,,,0.00,WUHU216CR1000,2013-03-01 06:17:00,
2013-02-28 22:22:00,54.6,48.8,0.00,WNW,300,4.5,9.4,81,0.00,,,0.00,WUHU216CR1000,2013-03-01 06:22:00,
2013-02-28 22:27:00,54.6,48.8,0.00,WNW,300,4.5,9.4,81,0.00,,,0.00,WUHU216CR1000,2013-03-01 06:27:00,
2013-02-28 22:32:00,53.0,48.1,0.00,WNW,299,2.6,4.9,83,0.00,,,0.00,WUHU216CR1000,2013-03-01 06:32:00,
2013-02-28 22:37:00,53.0,48.1,0.00,WNW,299,2.6,4.9,83,0.00,,,0.00,WUHU216CR1000,2013-03-01 06:37:00,
2013-02-28 22:42:00,53.0,48.1,0.00,WNW,299,2.6,4.9,83,0.00,,,0.00,WUHU216CR1000,2013-03-01 06:42:00,
2013-02-28 22:47:00,53.2,48.2,0.00,NW,306,3.0,6.5,83,0.00,,,0.00,WUHU216CR1000,2013-03-01 06:47:00,
2013-02-28 22:52:00,53.2,48.2,0.00,NW,306,3.0,6.5,83,0.00,,,0.00,WUHU216CR1000,2013-03-01 06:52:00,
2013-02-28 22:57:00,53.2,48.2,0.00,NW,306,3.0,6.5,83,0.00,,,0.00,WUHU216CR1000,2013-03-01 06:57:00,
2013-02-28 23:02:00,52.8,48.0,0.00,WNW,298,2.9,5.6,84,0.00,,,0.00,WUHU216CR1000,2013-03-01 07:02:00,
2013-02-28 23:07:00,52.8,48.0,0.00,WNW,298,2.9,5.6,84,0.00,,,0.00,WUHU216CR1000,2013-03-01 07:07:00,
2013-02-28 23:12:00,52.8,48.0,0.00,WNW,298,2.9,5.6,84,0.00,,,0.00,WUHU216CR1000,2013-03-01 07:12:00,
2013-02-28 23:17:00,52.7,47.9,0.00,NNW,327,1.8,5.5,84,0.00,,,0.00,WUHU216CR1000,2013-03-01 07:17:00,
2013-02-28 23:22:00,52.7,47.9,0.00,NNW,327,1.8,5.5,84,0.00,,,0.00,WUHU216CR1000,2013-03-01 07:22:00,
2013-02-28 23:27:00,52.7,47.9,0.00,NNW,327,1.8,5.5,84,0.00,,,0.00,WUHU216CR1000,2013-03-01 07:27:00,
2013-02-28 23:32:00,51.9,47.3,0.00,WNW,286,1.3,3.7,84,0.00,,,0.00,WUHU216CR1000,2013-03-01 07:32:00,
2013-02-28 23:37:00,51.9,47.3,0.00,WNW,286,1.3,3.7,84,0.00,,,0.00,WUHU216CR1000,2013-03-01 07:37:00,
2013-02-28 23:42:00,51.9,47.3,0.00,WNW,286,1.3,3.7,84,0.00,,,0.00,WUHU216CR1000,2013-03-01 07:42:00,
2013-02-28 23:47:00,50.3,46.7,0.00,West,263,2.4,4.2,87,0.00,,,0.00,WUHU216CR1000,2013-03-01 07:47:00,
2013-02-28 23:52:00,50.3,46.7,0.00,West,263,2.4,4.2,87,0.00,,,0.00,WUHU216CR1000,2013-03-01 07:52:00,
2013-02-28 23:57:00,50.3,46.7,0.00,West,263,2.4,4.2,87,0.00,,,0.00,WUHU216CR1000,2013-03-01 07:57:00,